createdAt,value
2022-08-27T00:01:36.365Z,22.17
2022-08-27T00:03:39.267Z,22.14
2022-08-27T00:05:43.514Z,22.23
2022-08-27T00:07:47.906Z,22.25
2022-08-27T00:09:50.591Z,22.30
2022-08-27T00:11:53.276Z,22.32
2022-08-27T00:13:56.936Z,22.33
2022-08-27T00:15:59.633Z,22.37
2022-08-27T00:18:02.287Z,22.40
2022-08-27T00:20:06.492Z,22.40
2022-08-27T00:22:10.272Z,22.38
2022-08-27T00:24:13.344Z,22.35
2022-08-27T00:26:17.104Z,22.35
2022-08-27T00:28:20.003Z,22.34
2022-08-27T00:30:24.281Z,22.33
2022-08-27T00:32:27.137Z,22.35
2022-08-27T00:34:30.075Z,22.38
2022-08-27T00:36:32.727Z,22.36
2022-08-27T00:38:40.963Z,22.32
2022-08-27T00:40:44.986Z,22.22
2022-08-27T00:42:55.090Z,22.14
2022-08-27T00:44:59.948Z,22.06
2022-08-27T00:47:25.316Z,22.00
2022-08-27T00:50:21.027Z,21.84
2022-08-27T00:52:28.540Z,21.82
2022-08-27T00:54:31.533Z,21.76
2022-08-27T00:56:40.857Z,21.73
2022-08-27T00:58:47.908Z,21.63
2022-08-27T01:00:50.937Z,21.60
2022-08-27T01:02:54.082Z,21.55
2022-08-27T01:05:01.554Z,21.50
2022-08-27T01:07:06.334Z,21.44
2022-08-27T01:09:14.678Z,21.38
2022-08-27T01:11:19.012Z,21.32
2022-08-27T01:13:58.823Z,21.27
2022-08-27T01:15:47.961Z,21.22
2022-08-27T01:17:51.879Z,21.18
2022-08-27T01:20:00.663Z,21.14
2022-08-27T01:22:19.921Z,21.14
2022-08-27T01:24:33.100Z,21.16
2022-08-27T01:26:36.948Z,21.17
2022-08-27T01:28:39.799Z,21.16
2022-08-27T01:30:44.059Z,21.14
2022-08-27T01:32:47.784Z,21.06
2022-08-27T01:34:51.590Z,21.02
2022-08-27T01:36:57.322Z,20.95
2022-08-27T01:39:00.375Z,20.90
2022-08-27T01:41:03.368Z,20.86
2022-08-27T01:43:06.330Z,20.82
2022-08-27T01:45:14.973Z,20.77
2022-08-27T01:47:20.634Z,20.71
2022-08-27T01:49:23.392Z,20.71
2022-08-27T01:51:26.218Z,20.69
2022-08-27T01:53:28.929Z,20.67
2022-08-27T01:55:31.653Z,20.71
2022-08-27T01:57:35.435Z,20.77
2022-08-27T01:59:39.755Z,20.80
2022-08-27T02:01:42.984Z,20.84
2022-08-27T02:03:47.634Z,20.85
2022-08-27T02:05:50.782Z,20.86
2022-08-27T02:07:54.488Z,20.90
2022-08-27T02:09:57.148Z,20.92
2022-08-27T02:12:01.021Z,20.92
2022-08-27T02:14:03.779Z,20.92
2022-08-27T02:16:16.590Z,20.87
2022-08-27T02:18:19.478Z,20.88
2022-08-27T02:20:23.111Z,20.87
2022-08-27T02:22:28.520Z,20.84
2022-08-27T02:24:31.224Z,20.86
2022-08-27T02:26:34.123Z,20.86
2022-08-27T02:28:37.171Z,20.87
2022-08-27T02:30:40.052Z,20.87
2022-08-27T02:32:42.791Z,20.86
2022-08-27T02:34:45.512Z,20.85
2022-08-27T02:36:48.418Z,20.90
2022-08-27T02:38:51.573Z,20.92
2022-08-27T02:40:54.289Z,20.91
2022-08-27T02:42:57.055Z,20.94
2022-08-27T02:44:59.770Z,20.97
2022-08-27T02:47:06.121Z,20.99
2022-08-27T02:49:09.774Z,21.03
2022-08-27T02:51:12.621Z,21.07
2022-08-27T02:53:15.530Z,21.07
2022-08-27T02:55:18.786Z,21.10
2022-08-27T02:57:22.622Z,21.13
2022-08-27T02:59:25.307Z,21.15
2022-08-27T03:01:28.696Z,21.22
2022-08-27T03:03:31.787Z,21.27
2022-08-27T03:05:34.566Z,21.30
2022-08-27T03:07:37.690Z,21.32
2022-08-27T03:09:40.824Z,21.35
2022-08-27T03:11:43.464Z,21.35
2022-08-27T03:13:46.210Z,21.40
2022-08-27T03:15:49.398Z,21.43
2022-08-27T03:18:12.054Z,21.49
2022-08-27T03:20:14.733Z,21.50
2022-08-27T03:22:17.369Z,21.51
2022-08-27T03:24:20.040Z,21.57
2022-08-27T03:26:24.707Z,21.65
2022-08-27T03:28:31.932Z,21.68
2022-08-27T03:30:34.720Z,21.75
2022-08-27T03:32:37.914Z,21.79
2022-08-27T03:34:40.568Z,21.85
2022-08-27T03:36:43.952Z,21.89
2022-08-27T03:38:49.824Z,21.93
2022-08-27T03:40:52.661Z,22.00
2022-08-27T03:42:55.831Z,22.05
2022-08-27T03:44:58.602Z,22.07
2022-08-27T03:47:01.396Z,22.13
2022-08-27T03:49:04.931Z,22.16
2022-08-27T03:51:10.249Z,22.19
2022-08-27T03:53:14.548Z,22.23
2022-08-27T03:55:17.227Z,22.30
2022-08-27T03:57:20.085Z,22.35
2022-08-27T03:59:22.752Z,22.40
2022-08-27T04:01:25.460Z,22.44
2022-08-27T04:03:28.664Z,22.46
2022-08-27T04:05:31.627Z,22.48
2022-08-27T04:07:34.289Z,22.50
2022-08-27T04:09:37.040Z,22.58
2022-08-27T04:11:39.683Z,22.60
2022-08-27T04:13:42.324Z,22.65
2022-08-27T04:15:50.041Z,22.67
2022-08-27T04:17:52.934Z,22.70
2022-08-27T04:19:55.632Z,22.75
2022-08-27T04:22:03.066Z,22.76
2022-08-27T04:24:06.023Z,22.81
2022-08-27T04:26:11.397Z,22.88
2022-08-27T04:28:15.610Z,22.92
2022-08-27T04:30:19.599Z,22.99
2022-08-27T04:32:23.593Z,23.07
2022-08-27T04:34:31.092Z,23.14
2022-08-27T04:36:33.817Z,23.18
2022-08-27T04:38:37.495Z,23.20
2022-08-27T04:40:58.758Z,23.25
2022-08-27T04:43:01.396Z,23.27
2022-08-27T04:45:04.880Z,23.28
2022-08-27T04:47:07.737Z,23.35
2022-08-27T04:49:13.668Z,23.39
2022-08-27T04:51:18.639Z,23.43
2022-08-27T04:53:21.522Z,23.46
2022-08-27T04:55:24.804Z,23.50
2022-08-27T04:57:28.104Z,23.54
2022-08-27T04:59:31.965Z,23.59
2022-08-27T05:01:36.999Z,23.64
2022-08-27T05:03:40.192Z,23.69
2022-08-27T05:05:44.799Z,23.76
2022-08-27T05:07:47.706Z,23.78
2022-08-27T05:09:56.185Z,23.88
2022-08-27T05:11:58.917Z,23.92
2022-08-27T05:14:06.700Z,23.99
2022-08-27T05:16:12.812Z,24.02
2022-08-27T05:18:15.691Z,24.09
2022-08-27T05:20:19.690Z,24.13
2022-08-27T05:22:22.334Z,24.19
2022-08-27T05:24:26.343Z,24.21
2022-08-27T05:26:29.927Z,24.30
2022-08-27T05:28:32.671Z,24.34
2022-08-27T05:30:44.480Z,24.43
2022-08-27T05:32:52.252Z,24.53
2022-08-27T05:34:54.908Z,24.62
2022-08-27T05:36:57.645Z,24.71
2022-08-27T05:39:02.184Z,24.75
2022-08-27T05:41:09.257Z,24.81
2022-08-27T05:43:15.989Z,24.88
2022-08-27T05:45:19.655Z,24.91
2022-08-27T05:47:23.198Z,24.99
2022-08-27T05:49:26.404Z,25.08
2022-08-27T05:51:32.818Z,25.11
2022-08-27T05:53:36.544Z,25.16
2022-08-27T05:55:45.904Z,25.21
2022-08-27T05:57:48.715Z,25.22
2022-08-27T06:00:10.101Z,25.33
2022-08-27T06:02:19.776Z,25.39
2022-08-27T06:04:24.728Z,25.44
2022-08-27T06:06:27.551Z,25.56
2022-08-27T06:08:30.607Z,25.63
2022-08-27T06:10:33.727Z,25.67
2022-08-27T06:12:36.486Z,25.74
2022-08-27T06:14:39.378Z,25.76
2022-08-27T06:16:42.837Z,25.84
2022-08-27T06:18:48.071Z,25.89
2022-08-27T06:20:50.728Z,25.98
2022-08-27T06:22:53.581Z,26.01
2022-08-27T06:24:56.314Z,26.07
2022-08-27T06:26:59.704Z,26.13
2022-08-27T06:29:07.617Z,26.21
2022-08-27T06:31:13.970Z,26.29
2022-08-27T06:33:16.959Z,26.38
2022-08-27T06:35:19.599Z,26.39
2022-08-27T06:37:22.274Z,26.51
2022-08-27T06:39:24.978Z,26.56
2022-08-27T06:41:29.203Z,26.63
2022-08-27T06:43:32.403Z,26.66
2022-08-27T06:45:38.920Z,26.70
2022-08-27T06:47:41.921Z,26.69
2022-08-27T06:49:46.553Z,26.82
2022-08-27T06:51:49.365Z,26.88
2022-08-27T06:53:53.394Z,26.95
2022-08-27T06:55:56.093Z,26.98
2022-08-27T06:57:58.837Z,27.03
2022-08-27T07:00:01.893Z,27.10
2022-08-27T07:02:07.546Z,27.15
2022-08-27T07:04:14.323Z,27.22
2022-08-27T07:06:18.332Z,27.29
2022-08-27T07:08:21.031Z,27.34
2022-08-27T07:10:24.853Z,27.35
2022-08-27T07:12:30.349Z,27.38
2022-08-27T07:14:37.992Z,27.42
2022-08-27T07:16:41.395Z,27.50
2022-08-27T07:18:44.220Z,27.59
2022-08-27T07:20:48.256Z,27.66
2022-08-27T07:22:54.481Z,27.70
2022-08-27T07:24:57.166Z,27.76
2022-08-27T07:27:00.055Z,27.80
2022-08-27T07:29:07.707Z,27.79
2022-08-27T07:31:12.937Z,27.85
2022-08-27T07:33:15.906Z,27.93
2022-08-27T07:35:19.050Z,28.01
2022-08-27T07:37:22.450Z,28.06
2022-08-27T07:39:26.403Z,28.08
2022-08-27T07:41:33.324Z,28.10
2022-08-27T07:43:56.085Z,28.15
2022-08-27T07:46:02.124Z,28.17
2022-08-27T07:48:04.968Z,28.21
2022-08-27T07:50:08.133Z,28.26
2022-08-27T07:52:12.007Z,28.31
2022-08-27T07:54:16.395Z,28.33
2022-08-27T07:56:19.872Z,28.38
2022-08-27T07:58:24.307Z,28.39
2022-08-27T08:00:28.961Z,28.38
2022-08-27T08:02:31.852Z,28.38
2022-08-27T08:04:34.755Z,28.40
2022-08-27T08:06:39.592Z,28.44
2022-08-27T08:08:44.020Z,28.48
2022-08-27T08:10:49.131Z,28.50
2022-08-27T08:12:51.994Z,28.53
2022-08-27T08:14:58.124Z,28.53
2022-08-27T08:17:02.931Z,28.63
2022-08-27T08:19:09.604Z,28.69
2022-08-27T08:21:14.459Z,28.79
2022-08-27T08:23:17.331Z,28.78
2022-08-27T08:25:20.092Z,28.93
2022-08-27T08:27:23.064Z,28.97
2022-08-27T08:29:25.823Z,29.10
2022-08-27T08:31:29.891Z,29.19
2022-08-27T08:33:34.030Z,29.25
2022-08-27T08:35:41.566Z,29.30
2022-08-27T08:37:44.982Z,29.35
2022-08-27T08:39:47.899Z,29.43
2022-08-27T08:42:01.949Z,29.48
2022-08-27T08:44:17.023Z,29.57
2022-08-27T08:46:34.487Z,29.62
2022-08-27T08:48:43.771Z,29.65
2022-08-27T08:50:59.462Z,29.68
2022-08-27T08:53:08.636Z,29.77
2022-08-27T08:55:32.683Z,29.86
2022-08-27T08:57:48.943Z,29.91
2022-08-27T09:00:02.059Z,30.02
2022-08-27T09:02:13.581Z,30.04
2022-08-27T09:04:16.779Z,30.09
2022-08-27T09:06:43.797Z,30.14
2022-08-27T09:08:48.568Z,30.19
2022-08-27T09:11:08.466Z,30.23
2022-08-27T09:13:33.710Z,30.21
2022-08-27T09:15:37.325Z,30.21
2022-08-27T09:17:42.891Z,30.16
2022-08-27T09:19:47.085Z,30.04
2022-08-27T09:22:16.184Z,30.05
2022-08-27T09:24:27.547Z,30.17
2022-08-27T09:26:34.482Z,30.16
2022-08-27T09:29:00.070Z,30.29
2022-08-27T09:31:09.234Z,30.39
2022-08-27T09:33:11.932Z,30.38
2022-08-27T09:35:16.878Z,30.45
2022-08-27T09:37:34.424Z,30.48
2022-08-27T09:39:56.932Z,30.59
2022-08-27T09:42:00.004Z,30.62
2022-08-27T09:44:09.500Z,30.68
2022-08-27T09:46:30.454Z,30.70
2022-08-27T09:48:37.584Z,30.71
2022-08-27T09:50:46.125Z,30.65
2022-08-27T09:52:55.808Z,30.64
2022-08-27T09:54:59.953Z,30.66
2022-08-27T09:57:08.602Z,30.62
2022-08-27T09:59:23.513Z,30.65
2022-08-27T10:01:29.727Z,30.68
2022-08-27T10:03:33.653Z,30.71
2022-08-27T10:05:47.414Z,30.75
2022-08-27T10:07:57.149Z,30.74
2022-08-27T10:10:49.583Z,30.85
2022-08-27T10:13:22.091Z,30.92
2022-08-27T10:15:30.567Z,30.87
2022-08-27T10:17:50.295Z,30.98
2022-08-27T10:19:59.732Z,31.00
2022-08-27T10:22:32.085Z,31.06
2022-08-27T10:25:18.265Z,31.25
2022-08-27T10:27:40.387Z,31.41
2022-08-27T10:29:59.342Z,31.56
2022-08-27T10:32:31.416Z,31.63
2022-08-27T10:34:51.810Z,31.58
2022-08-27T10:37:04.316Z,31.45
2022-08-27T10:39:37.171Z,31.30
2022-08-27T10:41:46.033Z,31.33
2022-08-27T10:44:25.883Z,31.35
2022-08-27T10:46:55.473Z,31.51
2022-08-27T10:49:20.909Z,31.79
2022-08-27T10:51:32.640Z,31.98
2022-08-27T10:53:37.996Z,32.09
2022-08-27T10:55:51.981Z,32.05
2022-08-27T10:58:24.962Z,32.12
2022-08-27T11:00:38.182Z,32.20
2022-08-27T11:02:45.109Z,32.26
2022-08-27T11:04:53.721Z,32.35
2022-08-27T11:07:12.150Z,32.41
2022-08-27T11:09:38.652Z,32.41
2022-08-27T11:14:35.678Z,32.69
2022-08-27T11:16:47.337Z,32.85
2022-08-27T11:18:56.609Z,32.94
2022-08-27T11:21:05.277Z,32.90
2022-08-27T11:23:17.592Z,33.03
2022-08-27T11:25:22.989Z,33.22
2022-08-27T11:27:30.458Z,33.37
2022-08-27T11:30:00.404Z,33.41
2022-08-27T11:32:10.755Z,33.39
2022-08-27T11:34:22.093Z,33.35
2022-08-27T11:36:43.335Z,33.51
2022-08-27T11:39:14.013Z,33.57
2022-08-27T11:41:48.192Z,33.83
2022-08-27T11:43:53.202Z,33.78
2022-08-27T11:46:03.770Z,33.75
2022-08-27T11:48:26.047Z,33.89
2022-08-27T11:50:31.400Z,34.09
2022-08-27T11:52:40.832Z,34.26
2022-08-27T11:54:51.426Z,34.41
2022-08-27T11:56:53.910Z,34.48
2022-08-27T11:59:08.412Z,34.60
2022-08-27T12:01:28.680Z,34.60
2022-08-27T12:03:35.409Z,34.59
2022-08-27T12:05:53.906Z,34.76
2022-08-27T12:07:57.812Z,34.93
2022-08-27T12:10:00.338Z,35.07
2022-08-27T12:12:20.198Z,35.12
2022-08-27T12:14:41.647Z,35.10
2022-08-27T12:16:49.839Z,35.18
2022-08-27T12:18:57.999Z,35.34
2022-08-27T12:21:18.991Z,35.52
2022-08-27T12:23:40.298Z,35.59
2022-08-27T12:26:15.772Z,35.72
2022-08-27T12:28:26.688Z,35.87
2022-08-27T12:30:35.852Z,35.94
2022-08-27T12:32:45.172Z,35.86
2022-08-27T12:34:57.779Z,35.85
2022-08-27T12:37:07.433Z,35.91
2022-08-27T12:39:17.441Z,36.11
2022-08-27T12:41:29.447Z,36.21
2022-08-27T12:43:33.925Z,36.25
2022-08-27T12:45:46.125Z,36.34
2022-08-27T12:47:50.957Z,36.42
2022-08-27T12:50:00.710Z,36.56
2022-08-27T12:52:15.793Z,36.51
2022-08-27T12:54:38.686Z,36.48
2022-08-27T12:57:07.632Z,36.70
2022-08-27T12:59:36.014Z,36.92
2022-08-27T13:01:54.908Z,37.05
2022-08-27T13:04:01.197Z,37.10
2022-08-27T13:06:17.286Z,37.02
2022-08-27T13:08:23.838Z,37.08
2022-08-27T13:10:31.267Z,37.12
2022-08-27T13:12:34.003Z,36.74
2022-08-27T13:14:41.134Z,36.40
2022-08-27T13:16:57.837Z,36.22
2022-08-27T13:19:00.764Z,36.26
2022-08-27T13:21:12.570Z,36.25
2022-08-27T13:23:22.701Z,36.17
2022-08-27T13:25:31.033Z,36.19
2022-08-27T13:27:37.616Z,36.51
2022-08-27T13:29:42.566Z,36.69
2022-08-27T13:31:46.047Z,36.83
2022-08-27T13:33:49.177Z,36.89
2022-08-27T13:35:52.086Z,37.06
2022-08-27T13:37:56.001Z,37.26
2022-08-27T13:39:58.990Z,37.45
2022-08-27T13:42:04.550Z,37.58
2022-08-27T13:44:19.024Z,37.70
2022-08-27T13:46:31.541Z,37.84
2022-08-27T13:48:34.357Z,37.83
2022-08-27T13:50:37.472Z,37.71
2022-08-27T13:53:01.881Z,37.63
2022-08-27T13:55:15.251Z,37.63
2022-08-27T13:57:39.914Z,37.55
2022-08-27T13:59:42.861Z,37.47
2022-08-27T14:02:03.621Z,37.63
2022-08-27T14:04:08.392Z,37.74
2022-08-27T14:06:23.962Z,37.74
2022-08-27T14:08:36.369Z,37.75
2022-08-27T14:10:41.081Z,37.80
2022-08-27T14:12:45.329Z,37.78
2022-08-27T14:14:54.547Z,37.77
2022-08-27T14:17:08.992Z,37.67
2022-08-27T14:19:28.642Z,37.62
2022-08-27T14:21:39.726Z,37.55
2022-08-27T14:23:42.408Z,37.45
2022-08-27T14:25:46.388Z,37.39
2022-08-27T14:27:53.087Z,37.33
2022-08-27T14:29:57.334Z,37.15
2022-08-27T14:32:00.816Z,37.02
2022-08-27T14:34:03.462Z,36.96
2022-08-27T14:36:07.525Z,36.92
2022-08-27T14:38:22.936Z,36.92
2022-08-27T14:40:25.691Z,37.00
2022-08-27T14:42:28.998Z,36.99
2022-08-27T14:44:31.933Z,36.93
2022-08-27T14:46:41.543Z,36.84
2022-08-27T14:48:46.291Z,36.78
2022-08-27T14:50:54.518Z,36.73
2022-08-27T14:52:57.093Z,36.70
2022-08-27T14:54:59.730Z,36.58
2022-08-27T14:57:04.220Z,36.45
2022-08-27T14:59:07.302Z,36.31
2022-08-27T15:01:10.340Z,36.18
2022-08-27T15:03:13.112Z,36.11
2022-08-27T15:05:17.819Z,35.95
2022-08-27T15:07:20.639Z,35.81
2022-08-27T15:09:26.321Z,35.47
2022-08-27T15:11:32.520Z,35.11
2022-08-27T15:13:35.122Z,34.73
2022-08-27T15:15:41.634Z,34.42
2022-08-27T15:17:44.303Z,34.19
2022-08-27T15:19:47.180Z,34.01
2022-08-27T15:21:53.194Z,33.80
2022-08-27T15:24:00.338Z,33.56
2022-08-27T15:26:03.122Z,33.39
2022-08-27T15:28:07.082Z,33.21
2022-08-27T15:30:12.729Z,33.11
2022-08-27T15:32:35.035Z,32.93
2022-08-27T15:34:37.663Z,32.70
2022-08-27T15:36:41.054Z,32.52
2022-08-27T15:38:43.681Z,32.34
2022-08-27T15:40:46.700Z,32.13
2022-08-27T15:42:55.456Z,32.04
2022-08-27T15:44:58.281Z,32.01
2022-08-27T15:47:00.941Z,31.96
2022-08-27T15:49:04.405Z,31.91
2022-08-27T15:51:10.795Z,31.79
2022-08-27T15:53:13.503Z,31.75
2022-08-27T15:55:33.881Z,31.66
2022-08-27T15:57:36.483Z,31.56
2022-08-27T15:59:40.351Z,31.39
2022-08-27T16:01:43.751Z,31.22
2022-08-27T16:03:47.009Z,31.08
2022-08-27T16:05:49.680Z,30.99
2022-08-27T16:07:52.281Z,30.57
2022-08-27T16:09:55.117Z,30.21
2022-08-27T16:11:58.649Z,29.87
2022-08-27T16:14:01.607Z,29.65
2022-08-27T16:16:06.174Z,29.49
2022-08-27T16:18:10.150Z,29.42
2022-08-27T16:20:15.433Z,29.38
2022-08-27T16:22:18.501Z,29.43
2022-08-27T16:24:21.881Z,29.46
2022-08-27T16:26:24.547Z,29.46
2022-08-27T16:28:27.387Z,29.35
2022-08-27T16:30:30.426Z,29.32
2022-08-27T16:32:33.104Z,29.29
2022-08-27T16:34:35.752Z,29.31
2022-08-27T16:36:38.315Z,29.35
2022-08-27T16:38:41.015Z,29.34
2022-08-27T16:40:47.912Z,29.27
2022-08-27T16:42:52.116Z,29.17
2022-08-27T16:44:56.890Z,29.09
2022-08-27T16:46:59.465Z,28.94
2022-08-27T16:49:20.793Z,28.69
2022-08-27T16:51:29.598Z,28.42
2022-08-27T16:53:41.367Z,28.26
2022-08-27T16:55:46.146Z,28.21
2022-08-27T16:57:48.669Z,28.06
2022-08-27T16:59:51.429Z,28.10
2022-08-27T17:01:54.677Z,28.02
2022-08-27T17:04:14.830Z,28.00
2022-08-27T17:06:25.680Z,27.98
2022-08-27T17:08:30.442Z,27.94
2022-08-27T17:10:40.802Z,27.89
2022-08-27T17:12:47.304Z,27.86
2022-08-27T17:14:51.294Z,27.82
2022-08-27T17:16:54.779Z,27.80
2022-08-27T17:19:00.917Z,27.75
2022-08-27T17:21:04.897Z,27.70
2022-08-27T17:23:15.564Z,27.66
2022-08-27T17:25:18.281Z,27.60
2022-08-27T17:27:20.883Z,27.55
2022-08-27T17:29:23.929Z,27.50
2022-08-27T17:31:37.357Z,27.44
2022-08-27T17:33:51.494Z,27.36
2022-08-27T17:35:54.086Z,27.30
2022-08-27T17:37:56.684Z,27.25
2022-08-27T17:39:59.332Z,27.22
2022-08-27T17:42:01.963Z,27.18
2022-08-27T17:44:19.739Z,27.15
2022-08-27T17:46:22.285Z,27.13
2022-08-27T17:48:26.705Z,27.06
2022-08-27T17:50:29.643Z,27.02
2022-08-27T17:52:34.098Z,27.02
2022-08-27T17:54:45.933Z,26.97
2022-08-27T17:56:51.642Z,26.99
2022-08-27T17:58:54.658Z,26.99
2022-08-27T18:00:57.402Z,26.99
2022-08-27T18:03:00.635Z,26.97
2022-08-27T18:05:04.738Z,26.91
2022-08-27T18:07:07.566Z,26.95
2022-08-27T18:09:10.593Z,26.94
2022-08-27T18:11:13.739Z,26.93
2022-08-27T18:13:17.905Z,26.90
2022-08-27T18:15:29.097Z,26.89
2022-08-27T18:17:34.303Z,26.87
2022-08-27T18:19:45.415Z,26.86
2022-08-27T18:21:48.336Z,26.84
2022-08-27T18:23:51.699Z,26.83
2022-08-27T18:25:55.632Z,26.82
2022-08-27T18:28:01.438Z,26.80
2022-08-27T18:30:06.462Z,26.80
2022-08-27T18:32:09.039Z,26.78
2022-08-27T18:34:11.718Z,26.77
2022-08-27T18:36:15.483Z,26.73
2022-08-27T18:38:18.658Z,26.71
2022-08-27T18:40:24.176Z,26.68
2022-08-27T18:42:38.146Z,26.63
2022-08-27T18:44:43.226Z,26.59
2022-08-27T18:46:46.137Z,26.56
2022-08-27T18:48:48.723Z,26.52
2022-08-27T18:50:58.884Z,26.50
2022-08-27T18:53:02.955Z,26.45
2022-08-27T18:55:08.508Z,26.43
2022-08-27T18:57:12.971Z,26.43
2022-08-27T18:59:16.298Z,26.39
2022-08-27T19:01:24.790Z,26.36
2022-08-27T19:03:33.769Z,26.31
2022-08-27T19:05:36.481Z,26.27
2022-08-27T19:07:39.521Z,26.25
2022-08-27T19:09:43.008Z,26.22
2022-08-27T19:11:45.754Z,26.16
2022-08-27T19:13:50.634Z,26.12
2022-08-27T19:16:06.684Z,26.08
2022-08-27T19:18:09.746Z,26.03
2022-08-27T19:20:12.910Z,26.01
2022-08-27T19:22:15.770Z,25.99
2022-08-27T19:24:19.351Z,25.96
2022-08-27T19:26:25.494Z,25.92
2022-08-27T19:28:37.523Z,25.88
2022-08-27T19:30:40.231Z,25.83
2022-08-27T19:32:43.144Z,25.82
2022-08-27T19:34:45.959Z,25.78
2022-08-27T19:36:48.573Z,25.73
2022-08-27T19:38:53.024Z,25.71
2022-08-27T19:40:55.806Z,25.69
2022-08-27T19:42:58.553Z,25.66
2022-08-27T19:45:01.245Z,25.64
2022-08-27T19:47:07.681Z,25.60
2022-08-27T19:49:10.373Z,25.59
2022-08-27T19:51:13.577Z,25.58
2022-08-27T19:53:16.345Z,25.55
2022-08-27T19:55:19.731Z,25.54
2022-08-27T19:57:22.420Z,25.52
2022-08-27T19:59:25.344Z,25.49
2022-08-27T20:01:27.940Z,25.46
2022-08-27T20:03:30.683Z,25.44
2022-08-27T20:05:33.479Z,25.43
2022-08-27T20:07:36.086Z,25.42
2022-08-27T20:09:38.727Z,25.41
2022-08-27T20:11:43.460Z,25.42
2022-08-27T20:13:50.495Z,25.41
2022-08-27T20:15:53.468Z,25.40
2022-08-27T20:17:56.116Z,25.36
2022-08-27T20:19:59.090Z,25.36
2022-08-27T20:22:02.576Z,25.35
2022-08-27T20:24:05.853Z,25.29
2022-08-27T20:26:08.656Z,25.27
2022-08-27T20:28:35.435Z,25.22
2022-08-27T20:30:34.966Z,25.14
2022-08-27T20:32:37.974Z,25.09
2022-08-27T20:34:40.752Z,25.05
2022-08-27T20:36:43.554Z,25.03
2022-08-27T20:38:46.266Z,25.00
2022-08-27T20:40:49.435Z,25.01
2022-08-27T20:42:52.373Z,24.99
2022-08-27T20:44:54.904Z,24.96
2022-08-27T20:47:01.156Z,24.95
2022-08-27T20:49:04.591Z,24.94
2022-08-27T20:51:07.466Z,24.93
2022-08-27T20:53:10.036Z,24.90
2022-08-27T20:55:14.354Z,24.87
2022-08-27T20:57:17.089Z,24.84
2022-08-27T20:59:38.455Z,24.80
2022-08-27T21:01:41.099Z,24.75
2022-08-27T21:03:43.817Z,24.71
2022-08-27T21:05:48.782Z,24.67
2022-08-27T21:07:53.125Z,24.66
2022-08-27T21:09:57.543Z,24.60
2022-08-27T21:12:00.371Z,24.56
2022-08-27T21:14:03.026Z,24.54
2022-08-27T21:16:06.212Z,24.47
2022-08-27T21:18:08.844Z,24.44
2022-08-27T21:20:13.094Z,24.40
2022-08-27T21:22:15.825Z,24.36
2022-08-27T21:24:18.955Z,24.36
2022-08-27T21:26:23.075Z,24.32
2022-08-27T21:28:25.833Z,24.29
2022-08-27T21:30:28.473Z,24.27
2022-08-27T21:32:31.062Z,24.27
2022-08-27T21:34:33.702Z,24.23
2022-08-27T21:36:36.921Z,24.19
2022-08-27T21:38:39.962Z,24.18
2022-08-27T21:40:42.721Z,24.17
2022-08-27T21:42:45.388Z,24.13
2022-08-27T21:44:47.975Z,24.10
2022-08-27T21:46:50.550Z,24.07
2022-08-27T21:48:58.662Z,24.05
2022-08-27T21:51:11.159Z,24.05
2022-08-27T21:53:13.869Z,23.97
2022-08-27T21:55:16.932Z,24.01
2022-08-27T21:57:19.878Z,24.01
2022-08-27T21:59:22.648Z,23.99
2022-08-27T22:01:25.284Z,23.97
2022-08-27T22:03:27.849Z,23.93
2022-08-27T22:05:30.391Z,23.91
2022-08-27T22:07:33.031Z,23.87
2022-08-27T22:09:35.819Z,23.87
2022-08-27T22:11:38.403Z,23.85
2022-08-27T22:13:41.152Z,23.82
2022-08-27T22:15:44.169Z,23.82
2022-08-27T22:17:51.131Z,23.80
2022-08-27T22:19:54.038Z,23.77
2022-08-27T22:21:56.918Z,23.77
2022-08-27T22:23:59.751Z,23.76
2022-08-27T22:26:03.521Z,23.75
2022-08-27T22:28:06.421Z,23.74
2022-08-27T22:30:11.419Z,23.72
2022-08-27T22:32:14.102Z,23.70
2022-08-27T22:34:17.175Z,23.70
2022-08-27T22:36:20.408Z,23.70
2022-08-27T22:38:23.028Z,23.67
2022-08-27T22:40:29.303Z,23.64
2022-08-27T22:42:33.079Z,23.61
2022-08-27T22:44:38.647Z,23.58
2022-08-27T22:46:41.363Z,23.57
2022-08-27T22:48:44.079Z,23.52
2022-08-27T22:50:46.878Z,23.50
2022-08-27T22:52:49.880Z,23.49
2022-08-27T22:54:54.822Z,23.46
2022-08-27T22:56:57.613Z,23.44
2022-08-27T22:59:00.356Z,23.42
2022-08-27T23:01:03.114Z,23.41
2022-08-27T23:03:09.235Z,23.38
2022-08-27T23:05:13.554Z,23.37
2022-08-27T23:07:16.202Z,23.35
2022-08-27T23:09:19.014Z,23.31
2022-08-27T23:11:21.633Z,23.30
2022-08-27T23:13:24.518Z,23.28
2022-08-27T23:15:29.429Z,23.25
2022-08-27T23:17:31.983Z,23.21
2022-08-27T23:19:34.562Z,23.14
2022-08-27T23:21:37.388Z,23.11
2022-08-27T23:23:39.991Z,23.08
2022-08-27T23:26:01.442Z,23.04
2022-08-27T23:28:06.530Z,22.98
2022-08-27T23:30:10.808Z,22.93
2022-08-27T23:32:14.408Z,22.89
2022-08-27T23:34:18.161Z,22.86
2022-08-27T23:36:21.850Z,22.83
2022-08-27T23:38:24.568Z,22.81
2022-08-27T23:40:27.429Z,22.76
2022-08-27T23:42:30.138Z,22.75
2022-08-27T23:44:32.713Z,22.75
2022-08-27T23:46:35.310Z,22.72
2022-08-27T23:48:39.514Z,22.72
2022-08-27T23:50:42.623Z,22.68
2022-08-27T23:52:45.310Z,22.65
2022-08-27T23:54:47.938Z,22.63
2022-08-27T23:56:50.557Z,22.58
2022-08-27T23:58:53.183Z,22.57
